sensor_id;sensor_type;location;lat;lon;timestamp;P1;durP1;ratioP1;P2;durP2;ratioP2
31660;SDS011;18267;52.234;7.444;2024-03-22T00:00:32;42.15;;;21.75;;
31660;SDS011;18267;52.234;7.444;2024-03-22T00:02:58;41.45;;;21.45;;
31660;SDS011;18267;52.234;7.444;2024-03-22T00:05:23;46.95;;;23.02;;
31660;SDS011;18267;52.234;7.444;2024-03-22T00:07:50;43.20;;;22.35;;
31660;SDS011;18267;52.234;7.444;2024-03-22T00:10:16;47.38;;;21.67;;
31660;SDS011;18267;52.234;7.444;2024-03-22T00:12:43;47.95;;;23.15;;
31660;SDS011;18267;52.234;7.444;2024-03-22T00:15:09;47.65;;;22.85;;
31660;SDS011;18267;52.234;7.444;2024-03-22T00:17:34;44.50;;;22.38;;
31660;SDS011;18267;52.234;7.444;2024-03-22T00:20:00;44.58;;;21.58;;
31660;SDS011;18267;52.234;7.444;2024-03-22T00:22:26;48.72;;;22.17;;
31660;SDS011;18267;52.234;7.444;2024-03-22T00:24:52;47.25;;;22.48;;
31660;SDS011;18267;52.234;7.444;2024-03-22T00:27:17;43.80;;;22.38;;
31660;SDS011;18267;52.234;7.444;2024-03-22T00:29:43;43.78;;;21.52;;
31660;SDS011;18267;52.234;7.444;2024-03-22T00:32:09;47.85;;;21.83;;
31660;SDS011;18267;52.234;7.444;2024-03-22T00:34:34;45.72;;;22.63;;
31660;SDS011;18267;52.234;7.444;2024-03-22T00:37:00;43.47;;;22.08;;
31660;SDS011;18267;52.234;7.444;2024-03-22T00:39:26;50.47;;;21.85;;
31660;SDS011;18267;52.234;7.444;2024-03-22T00:41:51;48.97;;;22.88;;
31660;SDS011;18267;52.234;7.444;2024-03-22T00:44:17;42.05;;;21.20;;
31660;SDS011;18267;52.234;7.444;2024-03-22T00:46:42;46.40;;;20.15;;
31660;SDS011;18267;52.234;7.444;2024-03-22T00:49:08;50.50;;;21.50;;
31660;SDS011;18267;52.234;7.444;2024-03-22T00:51:34;45.15;;;21.58;;
31660;SDS011;18267;52.234;7.444;2024-03-22T00:53:59;46.97;;;22.10;;
31660;SDS011;18267;52.234;7.444;2024-03-22T00:56:25;41.55;;;20.70;;
31660;SDS011;18267;52.234;7.444;2024-03-22T00:58:51;43.80;;;20.00;;
31660;SDS011;18267;52.234;7.444;2024-03-22T01:01:18;47.03;;;20.98;;
31660;SDS011;18267;52.234;7.444;2024-03-22T01:03:43;46.22;;;20.83;;
31660;SDS011;18267;52.234;7.444;2024-03-22T01:06:09;50.15;;;22.90;;
31660;SDS011;18267;52.234;7.444;2024-03-22T01:08:35;43.97;;;20.40;;
31660;SDS011;18267;52.234;7.444;2024-03-22T01:11:01;41.35;;;20.25;;
31660;SDS011;18267;52.234;7.444;2024-03-22T01:13:26;49.45;;;21.90;;
31660;SDS011;18267;52.234;7.444;2024-03-22T01:15:52;43.70;;;21.90;;
31660;SDS011;18267;52.234;7.444;2024-03-22T01:18:20;46.70;;;21.23;;
31660;SDS011;18267;52.234;7.444;2024-03-22T01:20:45;56.40;;;22.67;;
31660;SDS011;18267;52.234;7.444;2024-03-22T01:23:11;43.80;;;21.02;;
31660;SDS011;18267;52.234;7.444;2024-03-22T01:25:37;49.13;;;22.17;;
31660;SDS011;18267;52.234;7.444;2024-03-22T01:28:03;53.20;;;22.08;;
31660;SDS011;18267;52.234;7.444;2024-03-22T01:30:30;39.22;;;19.55;;
31660;SDS011;18267;52.234;7.444;2024-03-22T01:32:59;42.88;;;21.65;;
31660;SDS011;18267;52.234;7.444;2024-03-22T01:35:24;46.83;;;21.13;;
31660;SDS011;18267;52.234;7.444;2024-03-22T01:37:50;57.33;;;22.15;;
31660;SDS011;18267;52.234;7.444;2024-03-22T01:40:16;59.17;;;21.65;;
31660;SDS011;18267;52.234;7.444;2024-03-22T01:42:43;47.17;;;23.15;;
31660;SDS011;18267;52.234;7.444;2024-03-22T01:45:09;57.47;;;23.80;;
31660;SDS011;18267;52.234;7.444;2024-03-22T01:47:38;49.58;;;22.73;;
31660;SDS011;18267;52.234;7.444;2024-03-22T01:50:04;48.83;;;22.05;;
31660;SDS011;18267;52.234;7.444;2024-03-22T01:52:31;46.63;;;22.13;;
31660;SDS011;18267;52.234;7.444;2024-03-22T01:54:57;43.67;;;21.17;;
31660;SDS011;18267;52.234;7.444;2024-03-22T01:57:23;55.70;;;23.73;;
31660;SDS011;18267;52.234;7.444;2024-03-22T01:59:48;52.78;;;23.23;;
31660;SDS011;18267;52.234;7.444;2024-03-22T02:02:15;52.00;;;22.63;;
31660;SDS011;18267;52.234;7.444;2024-03-22T02:04:42;50.92;;;23.42;;
31660;SDS011;18267;52.234;7.444;2024-03-22T02:07:08;51.28;;;23.00;;
31660;SDS011;18267;52.234;7.444;2024-03-22T02:09:33;51.67;;;21.48;;
31660;SDS011;18267;52.234;7.444;2024-03-22T02:12:00;56.60;;;22.85;;
31660;SDS011;18267;52.234;7.444;2024-03-22T02:14:27;48.60;;;21.95;;
31660;SDS011;18267;52.234;7.444;2024-03-22T02:16:53;52.10;;;22.77;;
31660;SDS011;18267;52.234;7.444;2024-03-22T02:19:18;55.75;;;23.27;;
31660;SDS011;18267;52.234;7.444;2024-03-22T02:21:45;64.80;;;23.70;;
31660;SDS011;18267;52.234;7.444;2024-03-22T02:24:11;60.13;;;22.45;;
31660;SDS011;18267;52.234;7.444;2024-03-22T02:26:36;55.65;;;22.60;;
31660;SDS011;18267;52.234;7.444;2024-03-22T02:29:03;59.63;;;23.38;;
31660;SDS011;18267;52.234;7.444;2024-03-22T02:31:29;60.22;;;24.63;;
31660;SDS011;18267;52.234;7.444;2024-03-22T02:33:57;54.35;;;22.80;;
31660;SDS011;18267;52.234;7.444;2024-03-22T02:36:23;48.80;;;22.58;;
31660;SDS011;18267;52.234;7.444;2024-03-22T02:38:48;55.22;;;23.58;;
31660;SDS011;18267;52.234;7.444;2024-03-22T02:41:14;55.83;;;24.02;;
31660;SDS011;18267;52.234;7.444;2024-03-22T02:43:39;55.65;;;22.00;;
31660;SDS011;18267;52.234;7.444;2024-03-22T02:46:06;56.38;;;21.73;;
31660;SDS011;18267;52.234;7.444;2024-03-22T02:48:32;59.22;;;22.40;;
31660;SDS011;18267;52.234;7.444;2024-03-22T02:50:58;57.42;;;23.30;;
31660;SDS011;18267;52.234;7.444;2024-03-22T02:53:24;54.47;;;21.88;;
31660;SDS011;18267;52.234;7.444;2024-03-22T02:55:49;57.50;;;23.83;;
31660;SDS011;18267;52.234;7.444;2024-03-22T02:58:16;58.55;;;23.15;;
31660;SDS011;18267;52.234;7.444;2024-03-22T03:00:43;63.22;;;24.52;;
31660;SDS011;18267;52.234;7.444;2024-03-22T03:03:09;54.35;;;21.05;;
31660;SDS011;18267;52.234;7.444;2024-03-22T03:05:34;54.38;;;22.25;;
31660;SDS011;18267;52.234;7.444;2024-03-22T03:08:00;57.47;;;21.02;;
31660;SDS011;18267;52.234;7.444;2024-03-22T03:10:26;59.25;;;23.10;;
31660;SDS011;18267;52.234;7.444;2024-03-22T03:12:53;56.47;;;22.52;;
31660;SDS011;18267;52.234;7.444;2024-03-22T03:15:20;55.42;;;21.77;;
31660;SDS011;18267;52.234;7.444;2024-03-22T03:17:46;52.90;;;22.75;;
31660;SDS011;18267;52.234;7.444;2024-03-22T03:20:12;54.47;;;22.05;;
31660;SDS011;18267;52.234;7.444;2024-03-22T03:22:40;60.63;;;22.88;;
31660;SDS011;18267;52.234;7.444;2024-03-22T03:25:06;55.50;;;21.00;;
31660;SDS011;18267;52.234;7.444;2024-03-22T03:27:33;53.40;;;22.20;;
31660;SDS011;18267;52.234;7.444;2024-03-22T03:29:59;56.42;;;21.50;;
31660;SDS011;18267;52.234;7.444;2024-03-22T03:32:25;55.80;;;22.73;;
31660;SDS011;18267;52.234;7.444;2024-03-22T03:34:51;50.97;;;19.83;;
31660;SDS011;18267;52.234;7.444;2024-03-22T03:37:18;54.50;;;23.05;;
31660;SDS011;18267;52.234;7.444;2024-03-22T03:39:44;61.47;;;22.00;;
31660;SDS011;18267;52.234;7.444;2024-03-22T03:42:11;59.38;;;20.75;;
31660;SDS011;18267;52.234;7.444;2024-03-22T03:44:36;55.53;;;22.73;;
31660;SDS011;18267;52.234;7.444;2024-03-22T03:47:02;55.20;;;20.83;;
31660;SDS011;18267;52.234;7.444;2024-03-22T03:49:28;52.25;;;20.70;;
31660;SDS011;18267;52.234;7.444;2024-03-22T03:51:54;58.17;;;21.73;;
31660;SDS011;18267;52.234;7.444;2024-03-22T03:54:19;47.17;;;19.42;;
31660;SDS011;18267;52.234;7.444;2024-03-22T03:56:46;51.33;;;20.52;;
31660;SDS011;18267;52.234;7.444;2024-03-22T03:59:11;65.97;;;21.17;;
31660;SDS011;18267;52.234;7.444;2024-03-22T04:01:37;50.80;;;19.15;;
31660;SDS011;18267;52.234;7.444;2024-03-22T04:04:03;52.58;;;20.73;;
31660;SDS011;18267;52.234;7.444;2024-03-22T04:06:29;54.08;;;21.05;;
31660;SDS011;18267;52.234;7.444;2024-03-22T04:08:55;44.53;;;19.17;;
31660;SDS011;18267;52.234;7.444;2024-03-22T04:11:20;56.55;;;21.30;;
31660;SDS011;18267;52.234;7.444;2024-03-22T04:13:46;58.50;;;21.08;;
31660;SDS011;18267;52.234;7.444;2024-03-22T04:16:12;52.90;;;20.15;;
31660;SDS011;18267;52.234;7.444;2024-03-22T04:18:38;56.63;;;20.58;;
31660;SDS011;18267;52.234;7.444;2024-03-22T04:21:04;51.10;;;20.45;;
31660;SDS011;18267;52.234;7.444;2024-03-22T04:23:30;50.33;;;20.20;;
31660;SDS011;18267;52.234;7.444;2024-03-22T04:25:56;51.40;;;19.40;;
31660;SDS011;18267;52.234;7.444;2024-03-22T04:28:26;47.15;;;19.88;;
31660;SDS011;18267;52.234;7.444;2024-03-22T04:33:28;49.28;;;20.85;;
31660;SDS011;18267;52.234;7.444;2024-03-22T04:35:54;48.88;;;20.25;;
31660;SDS011;18267;52.234;7.444;2024-03-22T04:38:21;55.78;;;21.35;;
31660;SDS011;18267;52.234;7.444;2024-03-22T04:40:47;54.08;;;22.08;;
31660;SDS011;18267;52.234;7.444;2024-03-22T04:43:13;60.05;;;21.75;;
31660;SDS011;18267;52.234;7.444;2024-03-22T04:45:41;49.67;;;18.92;;
31660;SDS011;18267;52.234;7.444;2024-03-22T04:48:12;48.05;;;19.35;;
31660;SDS011;18267;52.234;7.444;2024-03-22T04:50:40;44.38;;;19.02;;
31660;SDS011;18267;52.234;7.444;2024-03-22T04:53:06;46.33;;;19.50;;
31660;SDS011;18267;52.234;7.444;2024-03-22T04:55:32;50.00;;;19.58;;
31660;SDS011;18267;52.234;7.444;2024-03-22T04:58:00;42.53;;;19.35;;
31660;SDS011;18267;52.234;7.444;2024-03-22T05:00:27;46.95;;;19.58;;
31660;SDS011;18267;52.234;7.444;2024-03-22T05:02:53;53.83;;;21.77;;
31660;SDS011;18267;52.234;7.444;2024-03-22T05:05:19;51.28;;;19.65;;
31660;SDS011;18267;52.234;7.444;2024-03-22T05:07:45;55.78;;;21.50;;
31660;SDS011;18267;52.234;7.444;2024-03-22T05:10:11;50.58;;;20.73;;
31660;SDS011;18267;52.234;7.444;2024-03-22T05:12:37;54.35;;;21.42;;
31660;SDS011;18267;52.234;7.444;2024-03-22T05:15:03;58.83;;;20.10;;
31660;SDS011;18267;52.234;7.444;2024-03-22T05:17:29;49.15;;;20.00;;
31660;SDS011;18267;52.234;7.444;2024-03-22T05:19:58;50.90;;;21.77;;
31660;SDS011;18267;52.234;7.444;2024-03-22T05:22:24;47.90;;;21.33;;
31660;SDS011;18267;52.234;7.444;2024-03-22T05:24:50;45.63;;;19.88;;
31660;SDS011;18267;52.234;7.444;2024-03-22T05:27:15;54.40;;;21.15;;
31660;SDS011;18267;52.234;7.444;2024-03-22T05:29:42;47.83;;;20.83;;
31660;SDS011;18267;52.234;7.444;2024-03-22T05:32:08;50.47;;;20.60;;
31660;SDS011;18267;52.234;7.444;2024-03-22T05:34:34;46.55;;;20.00;;
31660;SDS011;18267;52.234;7.444;2024-03-22T05:37:01;51.88;;;21.13;;
31660;SDS011;18267;52.234;7.444;2024-03-22T05:39:29;57.47;;;21.63;;
31660;SDS011;18267;52.234;7.444;2024-03-22T05:41:55;54.20;;;20.08;;
31660;SDS011;18267;52.234;7.444;2024-03-22T05:44:23;51.90;;;20.38;;
31660;SDS011;18267;52.234;7.444;2024-03-22T05:46:49;58.10;;;21.85;;
31660;SDS011;18267;52.234;7.444;2024-03-22T05:49:16;51.47;;;21.20;;
31660;SDS011;18267;52.234;7.444;2024-03-22T05:51:41;47.10;;;20.63;;
31660;SDS011;18267;52.234;7.444;2024-03-22T05:54:07;54.33;;;21.73;;
31660;SDS011;18267;52.234;7.444;2024-03-22T05:56:33;53.30;;;21.45;;
31660;SDS011;18267;52.234;7.444;2024-03-22T05:58:59;56.35;;;19.95;;
31660;SDS011;18267;52.234;7.444;2024-03-22T06:01:24;53.13;;;22.55;;
31660;SDS011;18267;52.234;7.444;2024-03-22T06:03:51;54.35;;;22.08;;
31660;SDS011;18267;52.234;7.444;2024-03-22T06:06:17;54.60;;;22.08;;
31660;SDS011;18267;52.234;7.444;2024-03-22T06:08:42;59.80;;;23.45;;
31660;SDS011;18267;52.234;7.444;2024-03-22T06:11:17;56.47;;;22.17;;
31660;SDS011;18267;52.234;7.444;2024-03-22T06:13:42;53.65;;;21.83;;
31660;SDS011;18267;52.234;7.444;2024-03-22T06:16:08;51.60;;;21.88;;
31660;SDS011;18267;52.234;7.444;2024-03-22T06:18:34;55.38;;;22.90;;
31660;SDS011;18267;52.234;7.444;2024-03-22T06:21:01;57.60;;;22.77;;
31660;SDS011;18267;52.234;7.444;2024-03-22T06:23:28;51.38;;;22.58;;
31660;SDS011;18267;52.234;7.444;2024-03-22T06:25:54;56.90;;;21.85;;
31660;SDS011;18267;52.234;7.444;2024-03-22T06:28:20;56.83;;;22.83;;
31660;SDS011;18267;52.234;7.444;2024-03-22T06:30:47;53.97;;;23.05;;
31660;SDS011;18267;52.234;7.444;2024-03-22T06:33:12;52.60;;;22.85;;
31660;SDS011;18267;52.234;7.444;2024-03-22T06:35:40;55.17;;;23.92;;
31660;SDS011;18267;52.234;7.444;2024-03-22T06:38:06;49.05;;;22.70;;
31660;SDS011;18267;52.234;7.444;2024-03-22T06:40:32;50.97;;;21.90;;
31660;SDS011;18267;52.234;7.444;2024-03-22T06:42:58;50.65;;;21.75;;
31660;SDS011;18267;52.234;7.444;2024-03-22T06:45:23;53.15;;;23.52;;
31660;SDS011;18267;52.234;7.444;2024-03-22T06:47:49;45.65;;;22.35;;
31660;SDS011;18267;52.234;7.444;2024-03-22T06:50:16;46.38;;;22.73;;
31660;SDS011;18267;52.234;7.444;2024-03-22T06:52:49;48.67;;;23.52;;
31660;SDS011;18267;52.234;7.444;2024-03-22T06:55:18;52.85;;;22.85;;
31660;SDS011;18267;52.234;7.444;2024-03-22T06:57:46;54.35;;;22.40;;
31660;SDS011;18267;52.234;7.444;2024-03-22T07:00:13;50.67;;;22.10;;
31660;SDS011;18267;52.234;7.444;2024-03-22T07:02:40;49.75;;;22.65;;
31660;SDS011;18267;52.234;7.444;2024-03-22T07:05:09;56.95;;;22.70;;
31660;SDS011;18267;52.234;7.444;2024-03-22T07:07:35;54.65;;;22.77;;
31660;SDS011;18267;52.234;7.444;2024-03-22T07:10:02;48.92;;;22.17;;
31660;SDS011;18267;52.234;7.444;2024-03-22T07:12:28;46.75;;;21.58;;
31660;SDS011;18267;52.234;7.444;2024-03-22T07:14:55;53.28;;;23.65;;
31660;SDS011;18267;52.234;7.444;2024-03-22T07:17:21;59.00;;;24.00;;
31660;SDS011;18267;52.234;7.444;2024-03-22T07:19:50;54.78;;;23.35;;
31660;SDS011;18267;52.234;7.444;2024-03-22T07:22:16;48.67;;;22.30;;
31660;SDS011;18267;52.234;7.444;2024-03-22T07:24:42;54.22;;;22.65;;
31660;SDS011;18267;52.234;7.444;2024-03-22T07:27:08;47.13;;;21.85;;
31660;SDS011;18267;52.234;7.444;2024-03-22T07:29:33;46.97;;;22.55;;
31660;SDS011;18267;52.234;7.444;2024-03-22T07:31:59;47.72;;;22.20;;
31660;SDS011;18267;52.234;7.444;2024-03-22T07:34:25;47.58;;;22.67;;
31660;SDS011;18267;52.234;7.444;2024-03-22T07:36:50;46.13;;;22.42;;
31660;SDS011;18267;52.234;7.444;2024-03-22T07:39:16;52.72;;;22.67;;
31660;SDS011;18267;52.234;7.444;2024-03-22T07:41:41;46.33;;;22.08;;
31660;SDS011;18267;52.234;7.444;2024-03-22T07:44:07;48.97;;;21.98;;
31660;SDS011;18267;52.234;7.444;2024-03-22T07:46:32;42.90;;;20.55;;
31660;SDS011;18267;52.234;7.444;2024-03-22T07:48:58;53.05;;;22.60;;
31660;SDS011;18267;52.234;7.444;2024-03-22T07:51:25;48.92;;;22.33;;
31660;SDS011;18267;52.234;7.444;2024-03-22T07:53:53;49.17;;;22.20;;
31660;SDS011;18267;52.234;7.444;2024-03-22T07:56:19;42.78;;;21.73;;
31660;SDS011;18267;52.234;7.444;2024-03-22T07:58:45;44.20;;;22.30;;
31660;SDS011;18267;52.234;7.444;2024-03-22T08:01:11;39.83;;;20.38;;
31660;SDS011;18267;52.234;7.444;2024-03-22T08:03:38;54.55;;;23.10;;
31660;SDS011;18267;52.234;7.444;2024-03-22T08:06:06;45.42;;;21.90;;
31660;SDS011;18267;52.234;7.444;2024-03-22T08:08:33;43.85;;;22.13;;
31660;SDS011;18267;52.234;7.444;2024-03-22T08:10:59;48.38;;;22.58;;
31660;SDS011;18267;52.234;7.444;2024-03-22T08:13:26;47.03;;;20.35;;
31660;SDS011;18267;52.234;7.444;2024-03-22T08:15:54;49.78;;;22.55;;
31660;SDS011;18267;52.234;7.444;2024-03-22T08:18:19;47.60;;;21.00;;
31660;SDS011;18267;52.234;7.444;2024-03-22T08:20:46;42.90;;;20.67;;
31660;SDS011;18267;52.234;7.444;2024-03-22T08:23:12;42.85;;;21.77;;
31660;SDS011;18267;52.234;7.444;2024-03-22T08:25:40;41.22;;;21.40;;
31660;SDS011;18267;52.234;7.444;2024-03-22T08:28:07;40.67;;;20.92;;
31660;SDS011;18267;52.234;7.444;2024-03-22T08:30:37;37.50;;;19.80;;
31660;SDS011;18267;52.234;7.444;2024-03-22T08:33:03;39.08;;;20.83;;
31660;SDS011;18267;52.234;7.444;2024-03-22T08:35:30;40.03;;;20.63;;
31660;SDS011;18267;52.234;7.444;2024-03-22T08:37:56;48.03;;;21.95;;
31660;SDS011;18267;52.234;7.444;2024-03-22T08:40:23;37.40;;;19.42;;
31660;SDS011;18267;52.234;7.444;2024-03-22T08:42:49;51.20;;;21.17;;
31660;SDS011;18267;52.234;7.444;2024-03-22T08:45:18;38.63;;;19.13;;
31660;SDS011;18267;52.234;7.444;2024-03-22T08:47:44;38.35;;;18.85;;
31660;SDS011;18267;52.234;7.444;2024-03-22T08:50:11;37.42;;;19.42;;
31660;SDS011;18267;52.234;7.444;2024-03-22T08:52:39;42.55;;;20.02;;
31660;SDS011;18267;52.234;7.444;2024-03-22T08:55:05;37.95;;;18.73;;
31660;SDS011;18267;52.234;7.444;2024-03-22T08:57:32;32.72;;;19.17;;
31660;SDS011;18267;52.234;7.444;2024-03-22T08:59:58;36.83;;;18.00;;
31660;SDS011;18267;52.234;7.444;2024-03-22T09:02:24;35.30;;;17.83;;
31660;SDS011;18267;52.234;7.444;2024-03-22T09:04:51;29.25;;;16.10;;
31660;SDS011;18267;52.234;7.444;2024-03-22T09:07:18;34.83;;;16.85;;
31660;SDS011;18267;52.234;7.444;2024-03-22T09:09:43;35.53;;;17.30;;
31660;SDS011;18267;52.234;7.444;2024-03-22T09:12:09;33.28;;;17.05;;
31660;SDS011;18267;52.234;7.444;2024-03-22T09:14:34;32.47;;;16.85;;
31660;SDS011;18267;52.234;7.444;2024-03-22T09:17:00;31.23;;;16.52;;
31660;SDS011;18267;52.234;7.444;2024-03-22T09:19:26;35.33;;;17.23;;
31660;SDS011;18267;52.234;7.444;2024-03-22T09:21:51;29.33;;;15.38;;
31660;SDS011;18267;52.234;7.444;2024-03-22T09:24:17;32.35;;;14.93;;
31660;SDS011;18267;52.234;7.444;2024-03-22T09:26:43;30.58;;;15.75;;
31660;SDS011;18267;52.234;7.444;2024-03-22T09:29:09;28.55;;;15.43;;
31660;SDS011;18267;52.234;7.444;2024-03-22T09:31:35;26.15;;;14.20;;
31660;SDS011;18267;52.234;7.444;2024-03-22T09:34:00;30.90;;;15.60;;
31660;SDS011;18267;52.234;7.444;2024-03-22T09:36:26;23.63;;;13.45;;
31660;SDS011;18267;52.234;7.444;2024-03-22T09:38:53;27.90;;;14.35;;
31660;SDS011;18267;52.234;7.444;2024-03-22T09:41:23;29.45;;;13.40;;
31660;SDS011;18267;52.234;7.444;2024-03-22T09:43:51;33.47;;;14.13;;
31660;SDS011;18267;52.234;7.444;2024-03-22T09:46:18;31.30;;;14.07;;
31660;SDS011;18267;52.234;7.444;2024-03-22T09:48:46;30.63;;;13.77;;
31660;SDS011;18267;52.234;7.444;2024-03-22T09:51:19;30.90;;;14.68;;
31660;SDS011;18267;52.234;7.444;2024-03-22T09:53:49;28.80;;;13.90;;
31660;SDS011;18267;52.234;7.444;2024-03-22T09:56:20;30.10;;;14.68;;
31660;SDS011;18267;52.234;7.444;2024-03-22T09:58:50;28.55;;;13.98;;
31660;SDS011;18267;52.234;7.444;2024-03-22T10:01:19;29.73;;;14.05;;
31660;SDS011;18267;52.234;7.444;2024-03-22T10:03:46;31.00;;;14.15;;
31660;SDS011;18267;52.234;7.444;2024-03-22T10:06:13;28.10;;;14.63;;
31660;SDS011;18267;52.234;7.444;2024-03-22T10:08:39;29.35;;;13.55;;
31660;SDS011;18267;52.234;7.444;2024-03-22T10:11:08;29.90;;;14.00;;
31660;SDS011;18267;52.234;7.444;2024-03-22T10:13:37;26.15;;;14.10;;
31660;SDS011;18267;52.234;7.444;2024-03-22T10:16:03;30.30;;;14.95;;
31660;SDS011;18267;52.234;7.444;2024-03-22T10:18:29;29.40;;;13.95;;
31660;SDS011;18267;52.234;7.444;2024-03-22T10:54:17;29.00;;;14.75;;
31660;SDS011;18267;52.234;7.444;2024-03-22T10:56:45;33.53;;;14.60;;
31660;SDS011;18267;52.234;7.444;2024-03-22T10:59:13;27.92;;;15.13;;
31660;SDS011;18267;52.234;7.444;2024-03-22T11:01:44;32.15;;;14.02;;
31660;SDS011;18267;52.234;7.444;2024-03-22T11:04:11;34.10;;;14.45;;
31660;SDS011;18267;52.234;7.444;2024-03-22T11:06:40;30.88;;;15.68;;
31660;SDS011;18267;52.234;7.444;2024-03-22T11:09:18;33.40;;;15.20;;
31660;SDS011;18267;52.234;7.444;2024-03-22T11:11:46;29.73;;;15.20;;
31660;SDS011;18267;52.234;7.444;2024-03-22T11:14:12;34.78;;;16.15;;
31660;SDS011;18267;52.234;7.444;2024-03-22T11:16:44;29.20;;;14.88;;
31660;SDS011;18267;52.234;7.444;2024-03-22T11:19:11;31.27;;;15.35;;
31660;SDS011;18267;52.234;7.444;2024-03-22T11:21:37;36.75;;;16.85;;
31660;SDS011;18267;52.234;7.444;2024-03-22T11:24:05;32.30;;;15.77;;
31660;SDS011;18267;52.234;7.444;2024-03-22T11:26:33;29.27;;;14.85;;
31660;SDS011;18267;52.234;7.444;2024-03-22T11:29:00;38.60;;;15.82;;
31660;SDS011;18267;52.234;7.444;2024-03-22T11:31:27;37.10;;;16.40;;
31660;SDS011;18267;52.234;7.444;2024-03-22T11:33:54;27.60;;;15.13;;
31660;SDS011;18267;52.234;7.444;2024-03-22T11:36:20;33.95;;;15.80;;
31660;SDS011;18267;52.234;7.444;2024-03-22T11:38:50;35.20;;;15.73;;
31660;SDS011;18267;52.234;7.444;2024-03-22T11:41:20;31.63;;;15.18;;
31660;SDS011;18267;52.234;7.444;2024-03-22T11:43:55;33.60;;;15.35;;
31660;SDS011;18267;52.234;7.444;2024-03-22T11:46:23;32.75;;;16.42;;
31660;SDS011;18267;52.234;7.444;2024-03-22T11:48:55;31.02;;;14.63;;
31660;SDS011;18267;52.234;7.444;2024-03-22T11:51:22;36.67;;;16.30;;
31660;SDS011;18267;52.234;7.444;2024-03-22T11:53:50;32.00;;;14.48;;
31660;SDS011;18267;52.234;7.444;2024-03-22T11:56:18;34.38;;;15.15;;
31660;SDS011;18267;52.234;7.444;2024-03-22T11:58:46;32.95;;;15.68;;
31660;SDS011;18267;52.234;7.444;2024-03-22T12:01:14;37.75;;;16.13;;
31660;SDS011;18267;52.234;7.444;2024-03-22T12:03:45;34.45;;;15.65;;
31660;SDS011;18267;52.234;7.444;2024-03-22T12:06:16;34.80;;;16.05;;
31660;SDS011;18267;52.234;7.444;2024-03-22T12:08:45;31.85;;;15.60;;
31660;SDS011;18267;52.234;7.444;2024-03-22T12:11:12;27.00;;;14.55;;
31660;SDS011;18267;52.234;7.444;2024-03-22T12:13:40;34.80;;;15.93;;
31660;SDS011;18267;52.234;7.444;2024-03-22T12:16:06;27.48;;;13.18;;
31660;SDS011;18267;52.234;7.444;2024-03-22T12:18:34;30.77;;;15.15;;
31660;SDS011;18267;52.234;7.444;2024-03-22T12:21:00;33.38;;;13.73;;
31660;SDS011;18267;52.234;7.444;2024-03-22T12:23:26;32.15;;;13.45;;
31660;SDS011;18267;52.234;7.444;2024-03-22T12:25:53;26.85;;;13.15;;
31660;SDS011;18267;52.234;7.444;2024-03-22T12:28:20;27.85;;;13.70;;
31660;SDS011;18267;52.234;7.444;2024-03-22T12:30:49;29.58;;;14.00;;
31660;SDS011;18267;52.234;7.444;2024-03-22T12:33:16;29.23;;;13.68;;
31660;SDS011;18267;52.234;7.444;2024-03-22T12:35:44;24.52;;;13.52;;
31660;SDS011;18267;52.234;7.444;2024-03-22T12:38:11;25.83;;;13.13;;
31660;SDS011;18267;52.234;7.444;2024-03-22T12:40:40;28.65;;;13.77;;
31660;SDS011;18267;52.234;7.444;2024-03-22T12:43:07;28.38;;;12.27;;
31660;SDS011;18267;52.234;7.444;2024-03-22T12:45:35;21.20;;;11.52;;
31660;SDS011;18267;52.234;7.444;2024-03-22T12:48:01;28.25;;;12.60;;
31660;SDS011;18267;52.234;7.444;2024-03-22T12:50:27;28.40;;;12.15;;
31660;SDS011;18267;52.234;7.444;2024-03-22T12:52:56;22.20;;;10.60;;
31660;SDS011;18267;52.234;7.444;2024-03-22T12:55:22;23.60;;;11.57;;
31660;SDS011;18267;52.234;7.444;2024-03-22T12:57:51;24.00;;;11.75;;
31660;SDS011;18267;52.234;7.444;2024-03-22T13:00:16;20.00;;;10.27;;
31660;SDS011;18267;52.234;7.444;2024-03-22T13:02:45;22.20;;;11.13;;
31660;SDS011;18267;52.234;7.444;2024-03-22T13:05:15;22.45;;;10.55;;
31660;SDS011;18267;52.234;7.444;2024-03-22T13:07:42;21.77;;;10.32;;
31660;SDS011;18267;52.234;7.444;2024-03-22T13:10:08;21.50;;;10.68;;
31660;SDS011;18267;52.234;7.444;2024-03-22T13:12:35;22.27;;;11.57;;
31660;SDS011;18267;52.234;7.444;2024-03-22T13:15:01;25.88;;;13.07;;
31660;SDS011;18267;52.234;7.444;2024-03-22T13:17:27;24.13;;;11.15;;
31660;SDS011;18267;52.234;7.444;2024-03-22T13:19:53;21.98;;;11.75;;
31660;SDS011;18267;52.234;7.444;2024-03-22T13:22:20;20.33;;;10.77;;
31660;SDS011;18267;52.234;7.444;2024-03-22T13:24:45;21.60;;;11.07;;
31660;SDS011;18267;52.234;7.444;2024-03-22T13:27:12;17.92;;;9.60;;
31660;SDS011;18267;52.234;7.444;2024-03-22T13:29:39;21.30;;;10.02;;
31660;SDS011;18267;52.234;7.444;2024-03-22T13:32:05;17.05;;;10.18;;
31660;SDS011;18267;52.234;7.444;2024-03-22T13:34:33;13.50;;;8.98;;
31660;SDS011;18267;52.234;7.444;2024-03-22T13:37:10;24.45;;;8.88;;
31660;SDS011;18267;52.234;7.444;2024-03-22T13:39:36;17.67;;;8.40;;
31660;SDS011;18267;52.234;7.444;2024-03-22T13:42:01;12.55;;;7.72;;
31660;SDS011;18267;52.234;7.444;2024-03-22T13:44:27;15.88;;;7.80;;
31660;SDS011;18267;52.234;7.444;2024-03-22T13:46:54;10.95;;;7.50;;
31660;SDS011;18267;52.234;7.444;2024-03-22T13:49:20;14.82;;;7.97;;
31660;SDS011;18267;52.234;7.444;2024-03-22T13:51:48;13.68;;;7.57;;
31660;SDS011;18267;52.234;7.444;2024-03-22T13:54:15;14.93;;;7.88;;
31660;SDS011;18267;52.234;7.444;2024-03-22T13:56:42;15.05;;;8.23;;
31660;SDS011;18267;52.234;7.444;2024-03-22T13:59:08;12.45;;;7.65;;
31660;SDS011;18267;52.234;7.444;2024-03-22T14:01:36;11.70;;;7.35;;
31660;SDS011;18267;52.234;7.444;2024-03-22T14:04:04;10.57;;;6.90;;
31660;SDS011;18267;52.234;7.444;2024-03-22T14:06:31;13.18;;;7.00;;
31660;SDS011;18267;52.234;7.444;2024-03-22T14:08:58;11.27;;;6.43;;
31660;SDS011;18267;52.234;7.444;2024-03-22T14:11:27;9.80;;;6.15;;
31660;SDS011;18267;52.234;7.444;2024-03-22T14:13:54;10.50;;;6.72;;
31660;SDS011;18267;52.234;7.444;2024-03-22T14:16:19;11.68;;;7.20;;
31660;SDS011;18267;52.234;7.444;2024-03-22T14:18:46;14.80;;;6.85;;
31660;SDS011;18267;52.234;7.444;2024-03-22T14:21:13;11.07;;;6.15;;
31660;SDS011;18267;52.234;7.444;2024-03-22T14:23:43;13.27;;;6.88;;
31660;SDS011;18267;52.234;7.444;2024-03-22T14:26:23;11.55;;;6.85;;
31660;SDS011;18267;52.234;7.444;2024-03-22T14:28:49;8.30;;;5.97;;
31660;SDS011;18267;52.234;7.444;2024-03-22T14:31:15;10.15;;;6.78;;
31660;SDS011;18267;52.234;7.444;2024-03-22T14:33:41;9.35;;;5.68;;
31660;SDS011;18267;52.234;7.444;2024-03-22T14:56:19;9.27;;;5.35;;
31660;SDS011;18267;52.234;7.444;2024-03-22T14:58:44;8.93;;;4.85;;
31660;SDS011;18267;52.234;7.444;2024-03-22T15:01:10;4.78;;;4.10;;
31660;SDS011;18267;52.234;7.444;2024-03-22T15:03:36;8.13;;;5.00;;
31660;SDS011;18267;52.234;7.444;2024-03-22T15:06:02;7.07;;;4.85;;
31660;SDS011;18267;52.234;7.444;2024-03-22T15:08:29;7.80;;;4.38;;
31660;SDS011;18267;52.234;7.444;2024-03-22T15:10:55;6.80;;;4.22;;
31660;SDS011;18267;52.234;7.444;2024-03-22T15:13:21;5.85;;;4.38;;
31660;SDS011;18267;52.234;7.444;2024-03-22T15:15:54;6.75;;;4.07;;